Time;durP1;ratioP1;P1;durP2;ratioP2;P2;SDS_P1;SDS_P2;PMS_P1;PMS_P2;Temp;Humidity;BMP_temperature;BMP_pressure;BME280_temperature;BME280_humidity;BME280_pressure;Samples;Min_cycle;Max_cycle;Signal;HPM_P1;HPM_P2
2022/09/11 00:02:02;;;;;;;;;19.67;18.67;;;;;;;;5041699;28;45587;-68
2022/09/11 00:04:27;;;;;;;;;21.00;18.67;;;;;;;;5040424;28;45369;-68
2022/09/11 00:06:52;;;;;;;;;20.00;18.00;;;;;;;;5041969;28;46487;-68
2022/09/11 00:09:17;;;;;;;;;20.33;16.67;;;;;;;;5041096;28;45352;-68
2022/09/11 00:11:42;;;;;;;;;14.33;14.33;;;;;;;;5038160;28;45293;-69
2022/09/11 00:14:09;;;;;;;;;18.00;16.67;;;;;;;;5042039;28;45400;-68
2022/09/11 00:16:40;;;;;;;;;14.00;14.00;;;;;;;;5053425;28;47200;-67
2022/09/11 00:19:07;;;;;;;;;19.67;16.00;;;;;;;;5032391;28;45468;-68
2022/09/11 00:21:32;;;;;;;;;16.67;15.00;;;;;;;;5053929;28;45522;-68
2022/09/11 00:23:57;;;;;;;;;17.67;13.00;;;;;;;;5042023;28;45354;-67
2022/09/11 00:26:23;;;;;;;;;14.00;13.33;;;;;;;;5036304;28;47595;-68
2022/09/11 00:28:49;;;;;;;;;12.00;11.67;;;;;;;;5038855;28;45377;-68
2022/09/11 00:31:18;;;;;;;;;18.33;15.33;;;;;;;;5036545;28;45459;-68
2022/09/11 00:33:44;;;;;;;;;16.00;14.00;;;;;;;;5042966;28;45591;-69
2022/09/11 00:36:13;;;;;;;;;12.67;12.67;;;;;;;;5050405;28;47244;-68
2022/09/11 00:38:38;;;;;;;;;11.00;11.00;;;;;;;;5040643;28;45449;-68
2022/09/11 00:41:06;;;;;;;;;15.00;14.00;;;;;;;;5036262;28;45326;-68
2022/09/11 00:43:50;;;;;;;;;13.00;12.33;;;;;;;;5027167;28;46738;-68
2022/09/11 00:46:15;;;;;;;;;16.00;15.00;;;;;;;;5035349;28;46527;-68
2022/09/11 00:48:41;;;;;;;;;13.33;13.00;;;;;;;;5036307;28;45230;-68
2022/09/11 00:51:06;;;;;;;;;12.33;12.33;;;;;;;;5037862;28;45475;-68
2022/09/11 00:53:34;;;;;;;;;19.00;16.33;;;;;;;;5042858;28;45290;-67
2022/09/11 00:56:01;;;;;;;;;17.00;15.33;;;;;;;;5040129;28;45677;-68
2022/09/11 00:58:29;;;;;;;;;14.00;12.00;;;;;;;;5052003;28;45970;-68
2022/09/11 01:00:55;;;;;;;;;16.00;15.00;;;;;;;;5032719;28;45350;-68
2022/09/11 01:03:21;;;;;;;;;12.00;12.00;;;;;;;;5040957;28;45611;-68
2022/09/11 01:05:47;;;;;;;;;16.00;14.00;;;;;;;;5038995;28;45486;-68
2022/09/11 01:08:12;;;;;;;;;14.33;13.00;;;;;;;;5057937;28;45726;-68
2022/09/11 01:10:38;;;;;;;;;14.67;14.67;;;;;;;;5050124;28;45483;-68
2022/09/11 01:13:03;;;;;;;;;13.67;13.67;;;;;;;;5035011;28;45405;-68
2022/09/11 01:15:28;;;;;;;;;17.00;13.67;;;;;;;;5031300;28;47341;-68
2022/09/11 01:18:03;;;;;;;;;15.00;15.00;;;;;;;;5038815;28;45306;-68
2022/09/11 01:20:28;;;;;;;;;12.67;12.67;;;;;;;;5035651;28;45361;-68
2022/09/11 01:23:14;;;;;;;;;15.33;13.33;;;;;;;;5042745;28;45246;-68
2022/09/11 01:26:04;;;;;;;;;18.00;15.33;;;;;;;;5034633;28;46170;-68
2022/09/11 01:28:34;;;;;;;;;16.00;16.00;;;;;;;;5036022;28;45305;-69
2022/09/11 01:31:02;;;;;;;;;13.00;12.33;;;;;;;;5032128;28;45411;-68
2022/09/11 01:33:30;;;;;;;;;13.67;13.67;;;;;;;;5042418;28;45492;-68
2022/09/11 01:35:55;;;;;;;;;22.33;14.00;;;;;;;;5031438;28;46141;-69
2022/09/11 01:38:26;;;;;;;;;17.00;15.67;;;;;;;;5040025;28;45302;-68
2022/09/11 01:40:54;;;;;;;;;16.00;14.67;;;;;;;;5032491;28;45470;-68
2022/09/11 01:43:28;;;;;;;;;14.00;13.00;;;;;;;;5028150;28;45447;-68
2022/09/11 01:45:55;;;;;;;;;15.00;13.00;;;;;;;;5033505;28;46090;-68
2022/09/11 01:48:25;;;;;;;;;18.33;16.33;;;;;;;;5035948;28;45264;-68
2022/09/11 01:50:52;;;;;;;;;13.67;13.33;;;;;;;;5053266;28;46529;-68
2022/09/11 01:53:20;;;;;;;;;16.67;16.67;;;;;;;;5030612;28;45432;-68
2022/09/11 01:55:50;;;;;;;;;16.67;15.00;;;;;;;;5036514;28;45406;-68
2022/09/11 01:58:21;;;;;;;;;16.33;16.33;;;;;;;;5042304;28;45357;-68
2022/09/11 02:00:49;;;;;;;;;13.67;13.33;;;;;;;;5041331;28;45516;-69
2022/09/11 02:03:14;;;;;;;;;15.33;13.00;;;;;;;;5043788;28;45400;-68
2022/09/11 02:05:52;;;;;;;;;16.75;13.50;;;;;;;;5041808;28;45515;-68
2022/09/11 02:08:30;;;;;;;;;15.67;14.67;;;;;;;;5042757;28;45382;-68
2022/09/11 02:11:02;;;;;;;;;13.00;12.00;;;;;;;;5039138;28;45483;-68
2022/09/11 02:13:46;;;;;;;;;15.00;14.33;;;;;;;;5058284;28;45513;-68
2022/09/11 02:16:18;;;;;;;;;18.00;15.00;;;;;;;;5038228;28;46148;-68
2022/09/11 02:18:49;;;;;;;;;19.00;16.00;;;;;;;;5044208;28;45455;-68
2022/09/11 02:21:14;;;;;;;;;17.00;17.00;;;;;;;;5053345;28;45400;-68
2022/09/11 02:23:40;;;;;;;;;16.67;14.33;;;;;;;;5045537;28;45312;-68
2022/09/11 02:26:06;;;;;;;;;15.67;15.67;;;;;;;;5038364;28;46087;-68
2022/09/11 02:28:31;;;;;;;;;20.00;16.67;;;;;;;;5043500;28;45329;-69
2022/09/11 02:30:57;;;;;;;;;20.67;17.67;;;;;;;;5035647;28;45271;-69
2022/09/11 02:33:32;;;;;;;;;17.33;16.00;;;;;;;;5044797;28;45247;-68
2022/09/11 02:36:18;;;;;;;;;17.33;14.33;;;;;;;;5034323;28;46343;-68
2022/09/11 02:38:51;;;;;;;;;19.33;18.67;;;;;;;;5039505;28;45396;-69
2022/09/11 02:41:22;;;;;;;;;16.00;16.00;;;;;;;;5037883;28;45333;-68
2022/09/11 02:43:52;;;;;;;;;19.33;19.33;;;;;;;;5027320;28;45311;-68
2022/09/11 02:46:17;;;;;;;;;19.67;16.67;;;;;;;;5053563;28;46476;-68
2022/09/11 02:49:11;;;;;;;;;18.33;18.00;;;;;;;;5038511;28;45144;-69
2022/09/11 02:51:38;;;;;;;;;20.67;19.33;;;;;;;;5030346;28;45391;-66
2022/09/11 02:54:04;;;;;;;;;20.00;20.00;;;;;;;;5035126;28;45176;-68
2022/09/11 02:56:39;;;;;;;;;15.33;15.00;;;;;;;;5038803;28;46206;-68
2022/09/11 02:59:24;;;;;;;;;21.00;21.00;;;;;;;;5043087;28;45551;-69
2022/09/11 03:01:52;;;;;;;;;19.67;16.67;;;;;;;;5058088;28;45474;-70
2022/09/11 03:04:17;;;;;;;;;15.67;15.67;;;;;;;;5041305;28;45517;-68
2022/09/11 03:06:43;;;;;;;;;26.00;24.50;;;;;;;;5055986;28;45536;-69
2022/09/11 03:09:08;;;;;;;;;20.67;20.67;;;;;;;;5042714;28;45278;-68
2022/09/11 03:11:34;;;;;;;;;24.00;23.00;;;;;;;;5036951;28;45382;-68
2022/09/11 03:14:00;;;;;;;;;23.33;22.33;;;;;;;;5044038;28;45297;-68
2022/09/11 03:16:25;;;;;;;;;21.33;19.33;;;;;;;;5035340;28;45322;-69
2022/09/11 03:18:50;;;;;;;;;24.67;20.67;;;;;;;;5043863;28;45282;-69
2022/09/11 03:21:15;;;;;;;;;20.00;19.00;;;;;;;;5037376;28;45562;-69
2022/09/11 03:23:41;;;;;;;;;26.33;23.00;;;;;;;;5044290;28;45632;-69
2022/09/11 03:26:06;;;;;;;;;21.33;20.33;;;;;;;;5037579;28;46589;-69
2022/09/11 03:28:32;;;;;;;;;22.00;19.00;;;;;;;;5042498;28;45341;-68
2022/09/11 03:30:58;;;;;;;;;19.00;19.00;;;;;;;;5034793;28;45315;-68
2022/09/11 03:33:23;;;;;;;;;20.00;18.33;;;;;;;;5044041;28;45549;-68
2022/09/11 03:35:48;;;;;;;;;19.00;18.33;;;;;;;;5036423;28;46691;-69
2022/09/11 03:38:14;;;;;;;;;21.33;18.67;;;;;;;;5041055;28;45363;-68
2022/09/11 03:40:41;;;;;;;;;23.67;19.33;;;;;;;;5038944;28;45526;-68
2022/09/11 03:43:06;;;;;;;;;21.33;19.00;;;;;;;;5030209;28;45333;-68
2022/09/11 03:45:31;;;;;;;;;26.00;22.67;;;;;;;;5036992;28;47286;-68
2022/09/11 03:47:56;;;;;;;;;21.67;17.67;;;;;;;;5056086;28;45308;-69
2022/09/11 03:50:21;;;;;;;;;25.33;19.33;;;;;;;;5040249;28;45505;-68
2022/09/11 03:52:47;;;;;;;;;21.25;21.25;;;;;;;;5041870;28;45310;-69
2022/09/11 03:55:12;;;;;;;;;24.67;23.00;;;;;;;;5038350;28;45692;-68
2022/09/11 03:57:38;;;;;;;;;27.25;23.25;;;;;;;;5040524;28;45246;-69
2022/09/11 04:00:03;;;;;;;;;22.75;22.25;;;;;;;;5040691;28;45472;-69
2022/09/11 04:02:29;;;;;;;;;24.33;22.00;;;;;;;;5043603;28;45488;-68
2022/09/11 04:04:54;;;;;;;;;20.00;20.00;;;;;;;;5051253;28;46825;-69
2022/09/11 04:07:19;;;;;;;;;20.33;20.33;;;;;;;;5057245;28;45817;-70
2022/09/11 04:09:45;;;;;;;;;25.00;23.00;;;;;;;;5053599;28;45478;-68
2022/09/11 04:12:10;;;;;;;;;24.67;21.33;;;;;;;;5042000;28;45393;-69
2022/09/11 04:14:35;;;;;;;;;29.67;24.00;;;;;;;;5035512;28;47254;-68
2022/09/11 04:17:00;;;;;;;;;22.67;21.00;;;;;;;;5041522;28;45570;-68
2022/09/11 04:19:26;;;;;;;;;28.00;23.50;;;;;;;;5041076;28;45251;-69
2022/09/11 04:21:51;;;;;;;;;22.33;18.33;;;;;;;;5039445;28;45182;-69
2022/09/11 04:24:16;;;;;;;;;17.00;17.00;;;;;;;;5026880;28;46381;-69
2022/09/11 04:26:41;;;;;;;;;21.67;19.33;;;;;;;;5037924;28;45227;-71
2022/09/11 04:29:07;;;;;;;;;30.00;26.67;;;;;;;;5038273;28;45183;-68
2022/09/11 04:31:33;;;;;;;;;30.00;24.75;;;;;;;;5035947;28;45219;-69
2022/09/11 04:33:59;;;;;;;;;28.00;23.00;;;;;;;;5040361;28;48642;-68
2022/09/11 04:36:25;;;;;;;;;19.00;19.00;;;;;;;;5032705;28;45389;-69
2022/09/11 04:38:53;;;;;;;;;24.00;21.33;;;;;;;;5037959;28;45235;-69
2022/09/11 04:41:18;;;;;;;;;28.67;24.00;;;;;;;;5040674;28;45620;-69
2022/09/11 04:43:44;;;;;;;;;27.67;24.33;;;;;;;;5041067;28;47407;-69
2022/09/11 04:46:13;;;;;;;;;24.00;21.33;;;;;;;;5036280;28;45438;-69
2022/09/11 04:48:44;;;;;;;;;29.25;25.75;;;;;;;;5038324;28;45267;-69
2022/09/11 04:51:09;;;;;;;;;25.00;23.00;;;;;;;;5036401;28;45340;-69
2022/09/11 04:53:36;;;;;;;;;29.00;26.75;;;;;;;;5045845;28;48004;-69
2022/09/11 04:56:03;;;;;;;;;21.67;21.67;;;;;;;;5031813;28;45362;-68
2022/09/11 04:58:29;;;;;;;;;26.00;23.00;;;;;;;;5042462;28;45358;-69
2022/09/11 05:00:54;;;;;;;;;26.33;23.67;;;;;;;;5039437;28;45391;-69
2022/09/11 05:03:19;;;;;;;;;25.33;24.00;;;;;;;;5041001;28;46766;-69
2022/09/11 05:05:45;;;;;;;;;25.67;24.00;;;;;;;;5039029;28;46129;-68
2022/09/11 05:08:10;;;;;;;;;27.67;26.00;;;;;;;;5040038;28;45382;-69
2022/09/11 05:10:37;;;;;;;;;30.00;27.00;;;;;;;;5039293;28;45313;-68
2022/09/11 05:13:02;;;;;;;;;27.33;22.00;;;;;;;;5054378;28;48095;-68
2022/09/11 05:15:28;;;;;;;;;27.33;26.67;;;;;;;;5034534;28;45432;-69
2022/09/11 05:17:53;;;;;;;;;19.00;18.33;;;;;;;;5037619;28;45361;-68
2022/09/11 05:20:19;;;;;;;;;27.67;22.33;;;;;;;;5051507;28;45360;-69
2022/09/11 05:22:44;;;;;;;;;26.67;21.33;;;;;;;;5035174;28;48135;-68
2022/09/11 05:25:10;;;;;;;;;21.33;19.33;;;;;;;;5030517;28;45562;-69
2022/09/11 05:27:35;;;;;;;;;25.67;21.00;;;;;;;;5041896;28;45255;-69
2022/09/11 05:30:00;;;;;;;;;18.00;17.33;;;;;;;;5035592;28;45282;-68
2022/09/11 05:32:26;;;;;;;;;21.67;19.33;;;;;;;;5039137;28;45589;-68
2022/09/11 05:34:51;;;;;;;;;21.33;21.33;;;;;;;;5040174;28;45359;-69
2022/09/11 05:37:16;;;;;;;;;19.33;17.67;;;;;;;;5040561;28;45440;-68
2022/09/11 05:39:41;;;;;;;;;22.00;15.33;;;;;;;;5041858;28;45227;-69
2022/09/11 05:42:06;;;;;;;;;18.67;17.00;;;;;;;;5042960;28;47334;-71
2022/09/11 05:44:32;;;;;;;;;20.33;20.33;;;;;;;;5028868;28;45340;-71
2022/09/11 05:46:57;;;;;;;;;26.33;18.67;;;;;;;;5042802;28;45546;-69
2022/09/11 05:49:24;;;;;;;;;19.33;16.00;;;;;;;;5043271;28;45302;-68
2022/09/11 05:51:49;;;;;;;;;17.33;16.00;;;;;;;;5043423;28;46512;-69
2022/09/11 05:54:14;;;;;;;;;23.00;20.33;;;;;;;;5044153;28;45222;-68
2022/09/11 05:56:40;;;;;;;;;22.67;19.00;;;;;;;;5037198;28;45451;-67
2022/09/11 05:59:10;;;;;;;;;18.33;15.67;;;;;;;;5044577;28;45479;-68
2022/09/11 06:01:35;;;;;;;;;25.00;17.33;;;;;;;;5036381;28;45496;-68
2022/09/11 06:04:01;;;;;;;;;21.67;16.33;;;;;;;;5042654;28;45404;-68
2022/09/11 06:06:26;;;;;;;;;21.67;12.67;;;;;;;;5036897;28;45315;-68
2022/09/11 06:08:51;;;;;;;;;16.00;16.00;;;;;;;;5042457;28;45332;-68
2022/09/11 06:11:17;;;;;;;;;15.00;15.00;;;;;;;;5032536;28;45511;-68
2022/09/11 06:13:43;;;;;;;;;15.33;15.33;;;;;;;;5045156;28;45377;-67
2022/09/11 06:16:09;;;;;;;;;15.00;15.00;;;;;;;;5051957;28;45368;-69
2022/09/11 06:18:35;;;;;;;;;21.33;17.00;;;;;;;;5044956;28;45536;-69
2022/09/11 06:21:01;;;;;;;;;16.00;16.00;;;;;;;;5039921;28;45420;-68
2022/09/11 06:23:27;;;;;;;;;18.33;18.00;;;;;;;;5044615;28;45340;-69
2022/09/11 06:25:53;;;;;;;;;17.00;17.00;;;;;;;;5050825;28;45457;-68
2022/09/11 06:28:20;;;;;;;;;17.00;17.00;;;;;;;;5042128;28;45508;-69
2022/09/11 06:30:46;;;;;;;;;17.33;17.33;;;;;;;;5029035;28;45540;-69
2022/09/11 06:33:12;;;;;;;;;16.33;13.00;;;;;;;;5041774;28;45323;-69
2022/09/11 06:35:37;;;;;;;;;21.00;17.00;;;;;;;;5033294;28;45315;-69
2022/09/11 06:38:02;;;;;;;;;20.33;20.00;;;;;;;;5041270;28;45682;-69
2022/09/11 06:40:27;;;;;;;;;23.33;20.00;;;;;;;;5037212;28;45377;-68
2022/09/11 06:42:53;;;;;;;;;18.00;16.67;;;;;;;;5056226;28;45496;-69
2022/09/11 06:45:18;;;;;;;;;33.67;23.33;;;;;;;;5031596;28;45477;-68
2022/09/11 06:47:43;;;;;;;;;23.00;19.33;;;;;;;;5033730;28;45375;-68
2022/09/11 06:50:10;;;;;;;;;25.33;22.00;;;;;;;;5036469;28;45714;-68
2022/09/11 06:52:36;;;;;;;;;22.67;22.33;;;;;;;;5033313;28;45437;-68
2022/09/11 06:55:01;;;;;;;;;21.67;21.33;;;;;;;;5041272;28;45432;-68
2022/09/11 06:57:27;;;;;;;;;29.33;25.33;;;;;;;;5035723;28;45180;-69
2022/09/11 06:59:52;;;;;;;;;32.00;29.00;;;;;;;;5039660;28;48052;-69
2022/09/11 07:02:17;;;;;;;;;26.67;23.00;;;;;;;;5035243;28;45417;-69
2022/09/11 07:04:42;;;;;;;;;29.33;23.67;;;;;;;;5041150;28;45247;-67
2022/09/11 07:07:08;;;;;;;;;34.67;28.67;;;;;;;;5035704;28;45223;-68
2022/09/11 07:09:33;;;;;;;;;28.33;25.67;;;;;;;;5036302;28;46518;-68
2022/09/11 07:11:58;;;;;;;;;30.00;25.33;;;;;;;;5034968;28;45413;-68
2022/09/11 07:14:23;;;;;;;;;22.00;20.33;;;;;;;;5057030;28;45450;-69
2022/09/11 07:16:51;;;;;;;;;28.33;24.67;;;;;;;;5038735;28;45536;-68
2022/09/11 07:19:17;;;;;;;;;32.50;30.00;;;;;;;;5041774;28;46610;-68
2022/09/11 07:21:42;;;;;;;;;25.67;25.67;;;;;;;;5041281;28;45274;-68
2022/09/11 07:24:08;;;;;;;;;27.33;24.33;;;;;;;;5042494;28;45573;-67
2022/09/11 07:26:35;;;;;;;;;32.25;28.00;;;;;;;;5034691;28;45413;-67
2022/09/11 07:29:00;;;;;;;;;30.00;30.00;;;;;;;;5035740;28;45338;-68
2022/09/11 07:31:31;;;;;;;;;33.33;31.00;;;;;;;;5032797;28;45444;-68
2022/09/11 07:33:57;;;;;;;;;33.00;30.00;;;;;;;;5043373;28;45373;-67
2022/09/11 07:36:24;;;;;;;;;34.25;30.25;;;;;;;;5027311;28;45244;-67
2022/09/11 07:38:49;;;;;;;;;31.00;27.67;;;;;;;;5042692;28;45314;-68
2022/09/11 07:41:16;;;;;;;;;33.33;30.67;;;;;;;;5036715;28;45519;-68
2022/09/11 07:43:44;;;;;;;;;30.00;27.33;;;;;;;;5038408;28;45397;-68
2022/09/11 07:46:09;;;;;;;;;30.00;29.50;;;;;;;;5036965;28;45425;-68
2022/09/11 07:48:35;;;;;;;;;27.00;27.00;;;;;;;;5038698;28;46185;-67
2022/09/11 07:51:02;;;;;;;;;28.67;26.33;;;;;;;;5035799;28;45301;-68
2022/09/11 07:53:30;;;;;;;;;34.25;31.50;;;;;;;;5033114;28;45238;-68
2022/09/11 07:55:59;;;;;;;;;34.25;32.00;;;;;;;;5034666;28;45500;-68
2022/09/11 07:58:24;;;;;;;;;44.00;36.00;;;;;;;;5043020;28;46566;-67
2022/09/11 08:00:56;;;;;;;;;36.00;31.50;;;;;;;;5034289;28;45539;-68
2022/09/11 08:03:21;;;;;;;;;36.50;32.75;;;;;;;;5035182;28;45430;-67
2022/09/11 08:05:46;;;;;;;;;37.50;33.75;;;;;;;;5029276;28;45387;-67
2022/09/11 08:08:11;;;;;;;;;39.50;32.00;;;;;;;;5037780;28;45284;-67
2022/09/11 08:10:39;;;;;;;;;34.75;31.75;;;;;;;;5034887;28;45366;-68
2022/09/11 08:13:04;;;;;;;;;39.00;34.00;;;;;;;;5039326;28;45730;-68
2022/09/11 08:15:30;;;;;;;;;36.75;33.50;;;;;;;;5041108;28;45263;-68
2022/09/11 08:17:55;;;;;;;;;33.75;31.75;;;;;;;;5038049;28;45647;-67
2022/09/11 08:20:20;;;;;;;;;40.75;31.25;;;;;;;;5039261;28;45383;-68
2022/09/11 08:22:45;;;;;;;;;34.50;30.75;;;;;;;;5041508;28;45364;-68
2022/09/11 08:25:11;;;;;;;;;36.00;32.25;;;;;;;;5036927;28;45156;-68
2022/09/11 08:27:37;;;;;;;;;37.50;32.00;;;;;;;;5035833;28;45819;-69
2022/09/11 08:30:02;;;;;;;;;34.75;31.50;;;;;;;;5030851;28;45221;-69
2022/09/11 08:32:27;;;;;;;;;29.33;28.00;;;;;;;;5050214;28;45527;-69
2022/09/11 08:34:53;;;;;;;;;34.25;32.50;;;;;;;;5053199;28;45402;-69
2022/09/11 08:37:18;;;;;;;;;32.00;30.25;;;;;;;;5032915;28;45460;-68
2022/09/11 08:39:43;;;;;;;;;32.25;31.00;;;;;;;;5031720;28;45455;-68
2022/09/11 08:42:12;;;;;;;;;37.25;33.00;;;;;;;;5038409;28;45157;-68
2022/09/11 08:44:46;;;;;;;;;31.00;28.75;;;;;;;;5038598;28;45485;-68
2022/09/11 08:47:21;;;;;;;;;26.67;26.00;;;;;;;;5036733;28;45654;-68
2022/09/11 08:50:06;;;;;;;;;26.00;26.00;;;;;;;;5031918;28;45315;-68
2022/09/11 08:52:32;;;;;;;;;31.33;29.67;;;;;;;;5028090;28;45458;-68
2022/09/11 08:54:58;;;;;;;;;27.00;27.00;;;;;;;;5037939;28;45342;-68
2022/09/11 08:57:42;;;;;;;;;33.00;29.00;;;;;;;;5032637;28;45456;-68
2022/09/11 09:00:13;;;;;;;;;34.25;30.50;;;;;;;;5037887;28;45371;-69
2022/09/11 09:02:39;;;;;;;;;33.25;30.75;;;;;;;;5038894;28;45319;-68
2022/09/11 09:05:05;;;;;;;;;36.50;29.75;;;;;;;;5039969;28;45593;-68
2022/09/11 09:07:36;;;;;;;;;32.00;30.75;;;;;;;;5034812;28;45864;-68
2022/09/11 09:10:16;;;;;;;;;29.33;27.00;;;;;;;;5043462;28;45277;-69
2022/09/11 09:12:52;;;;;;;;;28.75;28.75;;;;;;;;5037881;28;45408;-69
2022/09/11 09:15:37;;;;;;;;;33.00;30.00;;;;;;;;5033232;28;45627;-68
2022/09/11 09:18:07;;;;;;;;;37.00;33.50;;;;;;;;5043489;28;46818;-68
2022/09/11 09:20:35;;;;;;;;;33.25;31.50;;;;;;;;5042348;28;45512;-68
2022/09/11 09:23:02;;;;;;;;;26.33;22.00;;;;;;;;5045404;28;45364;-69
2022/09/11 09:25:29;;;;;;;;;28.33;27.33;;;;;;;;5035662;28;45385;-68
2022/09/11 09:27:59;;;;;;;;;26.00;24.67;;;;;;;;5040485;28;45433;-68
2022/09/11 09:30:26;;;;;;;;;25.00;24.33;;;;;;;;5050550;28;45439;-68
2022/09/11 09:33:00;;;;;;;;;25.67;22.67;;;;;;;;5039776;28;45383;-68
2022/09/11 09:35:31;;;;;;;;;26.33;25.33;;;;;;;;5055561;28;45763;-68
2022/09/11 09:37:56;;;;;;;;;28.75;27.25;;;;;;;;5041257;28;45478;-69
2022/09/11 09:40:24;;;;;;;;;29.50;28.75;;;;;;;;5038723;28;45430;-68
2022/09/11 09:42:52;;;;;;;;;27.33;26.33;;;;;;;;5040594;28;45449;-68
2022/09/11 09:45:30;;;;;;;;;30.33;27.67;;;;;;;;5052294;28;45531;-69
2022/09/11 09:47:55;;;;;;;;;23.00;23.00;;;;;;;;5041283;28;45435;-69
2022/09/11 09:50:23;;;;;;;;;24.67;23.00;;;;;;;;5038675;28;45232;-68
2022/09/11 09:52:48;;;;;;;;;28.67;24.00;;;;;;;;5035979;28;45304;-69
2022/09/11 09:55:15;;;;;;;;;22.33;19.00;;;;;;;;5042557;28;45169;-69
2022/09/11 09:57:42;;;;;;;;;23.67;22.33;;;;;;;;5029179;28;45320;-69
2022/09/11 10:00:10;;;;;;;;;18.33;17.00;;;;;;;;5041413;28;45423;-69
2022/09/11 10:02:35;;;;;;;;;17.33;16.67;;;;;;;;5038355;28;45334;-69
2022/09/11 10:05:05;;;;;;;;;16.33;16.33;;;;;;;;5042826;28;45490;-68
2022/09/11 10:07:31;;;;;;;;;13.67;12.00;;;;;;;;5037088;28;45414;-69
2022/09/11 10:10:02;;;;;;;;;9.00;7.67;;;;;;;;5042732;28;45314;-69
2022/09/11 10:12:30;;;;;;;;;10.00;7.33;;;;;;;;5035768;28;45273;-69
2022/09/11 10:14:57;;;;;;;;;7.67;5.33;;;;;;;;5046352;28;45776;-69
2022/09/11 10:17:30;;;;;;;;;8.67;8.67;;;;;;;;5041207;28;46882;-68
2022/09/11 10:20:11;;;;;;;;;7.67;7.67;;;;;;;;5039084;28;45192;-69
2022/09/11 10:22:36;;;;;;;;;5.33;5.33;;;;;;;;5042499;28;45332;-69
2022/09/11 10:25:12;;;;;;;;;6.33;6.00;;;;;;;;5037468;28;45471;-69
2022/09/11 10:27:42;;;;;;;;;6.00;6.00;;;;;;;;5052171;28;45743;-69
2022/09/11 10:30:21;;;;;;;;;8.33;7.00;;;;;;;;5032657;28;45394;-68
2022/09/11 10:32:47;;;;;;;;;5.33;5.33;;;;;;;;5039399;28;45326;-69
2022/09/11 10:35:15;;;;;;;;;10.67;9.00;;;;;;;;5039276;28;45243;-69
2022/09/11 10:37:41;;;;;;;;;8.00;8.00;;;;;;;;5038866;28;47442;-69
2022/09/11 10:40:17;;;;;;;;;9.00;7.00;;;;;;;;5037854;28;45548;-68
2022/09/11 10:42:43;;;;;;;;;7.00;7.00;;;;;;;;5039239;28;45543;-69
2022/09/11 10:45:15;;;;;;;;;9.67;7.00;;;;;;;;5035596;28;45430;-68
2022/09/11 10:47:41;;;;;;;;;7.33;7.33;;;;;;;;5038983;28;45407;-69
2022/09/11 10:50:16;;;;;;;;;5.00;5.00;;;;;;;;5036763;28;45436;-68
2022/09/11 10:52:56;;;;;;;;;7.00;7.00;;;;;;;;5033267;28;45294;-69
2022/09/11 10:55:22;;;;;;;;;8.00;8.00;;;;;;;;5039067;28;45242;-69
2022/09/11 10:57:51;;;;;;;;;4.67;4.00;;;;;;;;5028961;28;46389;-68
2022/09/11 11:00:24;;;;;;;;;7.67;7.33;;;;;;;;5037088;28;45574;-70
2022/09/11 11:02:52;;;;;;;;;5.00;5.00;;;;;;;;5038687;28;45282;-69
2022/09/11 11:05:20;;;;;;;;;7.00;7.00;;;;;;;;5040716;28;45420;-69
2022/09/11 11:07:54;;;;;;;;;5.00;5.00;;;;;;;;5036139;28;45325;-69
2022/09/11 11:10:23;;;;;;;;;6.33;5.00;;;;;;;;5039155;28;45412;-69
2022/09/11 11:13:05;;;;;;;;;10.33;8.67;;;;;;;;5033623;28;45509;-69
2022/09/11 11:15:38;;;;;;;;;9.67;6.33;;;;;;;;5031398;28;45370;-69
2022/09/11 11:18:16;;;;;;;;;6.00;6.00;;;;;;;;5038679;28;46289;-69
2022/09/11 11:20:51;;;;;;;;;8.33;7.00;;;;;;;;5040838;28;45221;-69
2022/09/11 11:23:35;;;;;;;;;5.33;5.00;;;;;;;;5044015;28;45548;-69
2022/09/11 11:26:03;;;;;;;;;5.00;5.00;;;;;;;;5034880;28;45378;-68
2022/09/11 11:28:47;;;;;;;;;7.00;6.00;;;;;;;;5052959;28;47288;-68
2022/09/11 11:31:33;;;;;;;;;7.00;7.00;;;;;;;;5027432;28;45480;-69
2022/09/11 11:34:17;;;;;;;;;6.00;6.00;;;;;;;;5041451;28;45481;-68
2022/09/11 11:36:45;;;;;;;;;4.00;4.00;;;;;;;;5051587;28;45300;-68
2022/09/11 11:39:16;;;;;;;;;5.00;5.00;;;;;;;;5042103;28;46129;-69
2022/09/11 11:41:45;;;;;;;;;5.33;4.67;;;;;;;;5034560;28;45414;-68
2022/09/11 11:44:17;;;;;;;;;5.00;5.00;;;;;;;;5038656;28;45305;-68
2022/09/11 11:46:45;;;;;;;;;5.00;5.00;;;;;;;;5035747;28;45279;-68
2022/09/11 11:49:14;;;;;;;;;6.33;4.67;;;;;;;;5041171;28;46456;-68
2022/09/11 11:51:46;;;;;;;;;5.67;5.67;;;;;;;;5034715;28;45431;-68
2022/09/11 11:54:17;;;;;;;;;4.00;3.67;;;;;;;;5037115;28;45244;-68
2022/09/11 11:56:45;;;;;;;;;6.00;6.00;;;;;;;;5035285;28;45286;-68
2022/09/11 11:59:13;;;;;;;;;6.00;6.00;;;;;;;;5041873;28;45367;-68
2022/09/11 12:01:41;;;;;;;;;5.00;5.00;;;;;;;;5032787;28;45433;-68
2022/09/11 12:04:18;;;;;;;;;4.00;4.00;;;;;;;;5042019;28;45285;-68
2022/09/11 12:06:44;;;;;;;;;5.00;5.00;;;;;;;;5035347;28;45679;-68
2022/09/11 12:09:09;;;;;;;;;7.00;6.33;;;;;;;;5039546;28;45624;-68
2022/09/11 12:11:35;;;;;;;;;5.00;4.67;;;;;;;;5032783;28;45310;-67
2022/09/11 12:14:01;;;;;;;;;4.33;4.33;;;;;;;;5054628;28;45401;-67
2022/09/11 12:16:33;;;;;;;;;4.33;4.33;;;;;;;;5032066;28;45626;-68
2022/09/11 12:19:04;;;;;;;;;4.67;4.67;;;;;;;;5043086;28;45768;-68
2022/09/11 12:21:30;;;;;;;;;5.00;5.00;;;;;;;;5040210;28;45392;-69
2022/09/11 12:23:55;;;;;;;;;4.00;4.00;;;;;;;;5041815;28;45424;-68
2022/09/11 12:26:24;;;;;;;;;5.67;5.67;;;;;;;;5031503;28;45339;-68
2022/09/11 12:29:08;;;;;;;;;9.33;8.00;;;;;;;;5037066;28;46402;-68
2022/09/11 12:31:49;;;;;;;;;5.00;5.00;;;;;;;;5044925;28;45363;-68
2022/09/11 12:34:19;;;;;;;;;5.00;5.00;;;;;;;;5041443;28;45319;-68
2022/09/11 12:36:47;;;;;;;;;5.00;5.00;;;;;;;;5035865;28;45701;-68
2022/09/11 12:39:24;;;;;;;;;5.33;4.67;;;;;;;;5041479;28;46623;-68
2022/09/11 12:41:49;;;;;;;;;6.00;6.00;;;;;;;;5033531;28;45446;-67
2022/09/11 12:44:29;;;;;;;;;5.33;5.33;;;;;;;;5038492;28;45349;-67
2022/09/11 12:46:57;;;;;;;;;6.67;6.67;;;;;;;;5034188;28;45545;-66
2022/09/11 12:49:23;;;;;;;;;4.00;4.00;;;;;;;;5040153;28;46224;-67
2022/09/11 12:51:53;;;;;;;;;6.33;3.00;;;;;;;;5033338;28;45416;-67
2022/09/11 12:54:25;;;;;;;;;4.33;4.33;;;;;;;;5052867;28;45319;-67
2022/09/11 12:56:57;;;;;;;;;5.33;5.33;;;;;;;;5035162;28;45653;-67
2022/09/11 12:59:24;;;;;;;;;6.00;4.33;;;;;;;;5055820;28;46971;-67
2022/09/11 13:01:51;;;;;;;;;3.00;3.00;;;;;;;;5033655;28;45401;-67
2022/09/11 13:04:19;;;;;;;;;5.00;5.00;;;;;;;;5040030;28;45436;-68
2022/09/11 13:06:46;;;;;;;;;4.00;4.00;;;;;;;;5034409;28;45317;-67
2022/09/11 13:09:18;;;;;;;;;3.00;3.00;;;;;;;;5038221;28;46797;-67
2022/09/11 13:11:45;;;;;;;;;4.00;4.00;;;;;;;;5033236;28;45301;-67
2022/09/11 13:14:36;;;;;;;;;3.00;3.00;;;;;;;;5038672;28;45271;-67
2022/09/11 13:17:11;;;;;;;;;4.00;4.00;;;;;;;;5026380;28;45324;-68
2022/09/11 13:19:36;;;;;;;;;4.00;4.00;;;;;;;;5039891;28;46422;-68
2022/09/11 13:22:18;;;;;;;;;4.00;4.00;;;;;;;;5040617;28;45312;-69
2022/09/11 13:24:43;;;;;;;;;4.00;4.00;;;;;;;;5033433;28;45439;-67
2022/09/11 13:27:15;;;;;;;;;7.00;7.00;;;;;;;;5031591;28;45581;-68
2022/09/11 13:29:42;;;;;;;;;5.00;5.00;;;;;;;;5031505;28;46381;-69
2022/09/11 13:32:11;;;;;;;;;3.00;3.00;;;;;;;;5031990;28;45315;-67
2022/09/11 13:34:37;;;;;;;;;4.00;4.00;;;;;;;;5039991;28;45187;-67
2022/09/11 13:37:10;;;;;;;;;4.67;4.00;;;;;;;;5036078;28;45148;-68
2022/09/11 13:39:39;;;;;;;;;2.00;2.00;;;;;;;;5040247;28;46296;-67
2022/09/11 13:42:11;;;;;;;;;3.00;3.00;;;;;;;;5034089;28;45448;-67
2022/09/11 13:44:40;;;;;;;;;3.33;2.00;;;;;;;;5037617;28;45477;-67
2022/09/11 13:47:14;;;;;;;;;6.00;4.00;;;;;;;;5034375;28;45694;-67
2022/09/11 13:49:40;;;;;;;;;3.00;3.00;;;;;;;;5029139;28;46050;-68
2022/09/11 13:52:06;;;;;;;;;4.00;4.00;;;;;;;;5029806;28;45444;-67
2022/09/11 13:54:33;;;;;;;;;7.00;5.00;;;;;;;;5054735;28;45428;-68
2022/09/11 13:56:58;;;;;;;;;4.00;4.00;;;;;;;;5045324;28;45556;-69
2022/09/11 13:59:43;;;;;;;;;4.00;4.00;;;;;;;;5042501;28;45430;-68
2022/09/11 14:02:27;;;;;;;;;4.00;4.00;;;;;;;;5041277;28;45355;-68
2022/09/11 14:04:57;;;;;;;;;5.00;4.00;;;;;;;;5041365;28;45492;-68
2022/09/11 14:07:25;;;;;;;;;4.00;4.00;;;;;;;;5043703;28;45321;-68
2022/09/11 14:10:03;;;;;;;;;5.67;4.33;;;;;;;;5039735;28;45507;-67
2022/09/11 14:12:30;;;;;;;;;3.33;3.33;;;;;;;;5043194;28;45468;-68
2022/09/11 14:14:57;;;;;;;;;5.00;5.00;;;;;;;;5041196;28;45383;-68
2022/09/11 14:17:23;;;;;;;;;4.00;4.00;;;;;;;;5035395;28;45547;-68
2022/09/11 14:19:50;;;;;;;;;3.33;3.33;;;;;;;;5038843;28;45459;-68
2022/09/11 14:22:20;;;;;;;;;3.33;3.33;;;;;;;;5058307;28;45496;-66
2022/09/11 14:24:52;;;;;;;;;2.00;2.00;;;;;;;;5042413;28;45160;-67
2022/09/11 14:27:29;;;;;;;;;4.33;4.33;;;;;;;;5037419;28;45449;-67
2022/09/11 14:29:54;;;;;;;;;4.00;3.00;;;;;;;;5040016;28;45507;-67
2022/09/11 14:32:32;;;;;;;;;3.33;3.00;;;;;;;;5035146;28;45338;-67